Time;durP1;ratioP1;P1;durP2;ratioP2;P2;SDS_P1;SDS_P2;PMS_P1;PMS_P2;Temp;Humidity;BMP_temperature;BMP_pressure;BME280_temperature;BME280_humidity;BME280_pressure;Samples;Min_cycle;Max_cycle;Signal;HPM_P1;HPM_P2
2021/09/12 00:00:14;;;;;;;38.10;19.30;;;;;;;14.50;61.00;99009.02;112015;1208;99018;-80
2021/09/12 00:03:03;;;;;;;35.00;20.10;;;;;;;14.41;61.45;99011.03;111949;1203;115062;-80
2021/09/12 00:05:36;;;;;;;37.50;17.60;;;;;;;14.35;61.33;99014.57;111889;1208;98867;-80
2021/09/12 00:08:04;;;;;;;37.20;19.10;;;;;;;14.33;62.03;99012.95;111983;1199;107093;-81
2021/09/12 00:10:32;;;;;;;36.30;19.40;;;;;;;14.26;62.28;99013.08;112066;1203;99368;-83
2021/09/12 00:13:00;;;;;;;36.20;19.10;;;;;;;14.18;61.95;99010.40;112043;1208;99069;-82
2021/09/12 00:15:28;;;;;;;34.10;18.40;;;;;;;14.14;61.80;99009.08;111988;1205;112457;-81
2021/09/12 00:17:55;;;;;;;35.60;18.50;;;;;;;14.14;61.77;99006.65;112058;1208;98922;-81
2021/09/12 00:20:23;;;;;;;35.90;18.40;;;;;;;14.12;61.86;99009.99;112010;1208;107382;-81
2021/09/12 00:22:51;;;;;;;35.90;19.50;;;;;;;14.10;62.06;99004.50;112042;1201;98990;-79
2021/09/12 00:25:23;;;;;;;34.10;18.60;;;;;;;14.07;61.96;99005.48;112036;1199;96391;-81
2021/09/12 00:27:51;;;;;;;38.80;20.40;;;;;;;14.05;61.99;99011.20;112030;1200;112594;-82
2021/09/12 00:30:18;;;;;;;35.50;18.90;;;;;;;14.04;61.94;99009.60;112053;1209;96384;-84
2021/09/12 00:32:50;;;;;;;37.60;18.60;;;;;;;14.03;61.97;99011.17;111891;1206;107454;-82
2021/09/12 00:35:18;;;;;;;35.60;18.50;;;;;;;14.02;61.86;99010.54;112008;1208;99040;-82
2021/09/12 00:37:50;;;;;;;38.50;19.20;;;;;;;14.00;62.13;99009.42;112044;1204;98940;-81
2021/09/12 00:40:23;;;;;;;37.60;19.10;;;;;;;13.98;62.05;99005.31;112017;1203;112566;-80
2021/09/12 00:42:52;;;;;;;;;;;;;;;13.97;62.23;99005.25;112079;1207;99006;-81
2021/09/12 00:45:23;;;;;;;33.40;18.30;;;;;;;13.97;62.45;99005.61;112052;1208;107473;-80
2021/09/12 00:47:51;;;;;;;37.50;19.10;;;;;;;14.01;62.32;99005.45;112059;1203;99042;-81
2021/09/12 00:50:21;;;;;;;35.80;18.90;;;;;;;14.04;62.22;99005.78;112045;1199;97826;-81
2021/09/12 00:53:00;;;;;;;37.90;19.20;;;;;;;14.04;62.14;99003.41;111964;1199;111595;-83
2021/09/12 00:55:32;;;;;;;39.30;20.30;;;;;;;14.04;62.13;99000.58;112027;1207;99795;-82
2021/09/12 00:58:05;;;;;;;38.20;19.50;;;;;;;14.04;62.16;99003.08;111966;1207;106159;-84
2021/09/12 01:00:36;;;;;;;36.30;18.90;;;;;;;14.01;62.21;98997.61;112007;1200;99004;-82
2021/09/12 01:03:03;;;;;;;35.50;19.80;;;;;;;13.96;62.35;98998.91;111979;1199;98916;-83
2021/09/12 01:05:37;;;;;;;35.30;18.90;;;;;;;13.93;62.33;98996.73;111996;1208;112410;-83
2021/09/12 01:08:09;;;;;;;37.30;19.20;;;;;;;13.90;62.45;98996.77;112022;1209;99045;-81
2021/09/12 01:10:41;;;;;;;38.20;19.30;;;;;;;13.88;62.44;98997.80;112030;1208;106686;-80
2021/09/12 01:13:09;;;;;;;36.60;20.20;;;;;;;13.84;62.42;98998.87;111994;1207;99051;-80
2021/09/12 01:15:37;;;;;;;40.90;19.80;;;;;;;13.82;62.56;98997.30;112025;1199;98947;-81
2021/09/12 01:18:05;;;;;;;36.70;19.70;;;;;;;13.82;62.60;98995.90;111993;1209;112537;-79
2021/09/12 01:20:35;;;;;;;41.50;19.10;;;;;;;13.80;62.63;98995.64;111863;1202;99003;-80
2021/09/12 01:23:07;;;;;;;36.10;19.30;;;;;;;13.79;62.64;98999.67;112024;1208;107481;-80
2021/09/12 01:25:38;;;;;;;38.00;19.80;;;;;;;13.78;62.53;98996.02;111974;1207;99051;-82
2021/09/12 01:28:09;;;;;;;41.00;19.20;;;;;;;13.76;62.72;98997.67;111985;1208;98956;-82
2021/09/12 01:30:37;;;;;;;37.70;19.20;;;;;;;13.72;62.69;98997.82;111999;1208;112052;-80
2021/09/12 01:33:05;;;;;;;36.00;19.40;;;;;;;13.70;62.85;98999.20;112006;1208;98934;-81
2021/09/12 01:35:33;;;;;;;37.80;19.60;;;;;;;13.69;62.86;98997.11;111860;1201;107222;-81
2021/09/12 01:38:04;;;;;;;36.50;20.10;;;;;;;13.70;62.81;99001.14;111999;1199;98975;-83
2021/09/12 01:40:32;;;;;;;36.70;19.60;;;;;;;13.68;62.81;98993.08;111882;1205;99033;-81
2021/09/12 01:43:06;;;;;;;37.30;19.20;;;;;;;13.66;62.79;98997.41;112002;1207;111441;-81
2021/09/12 01:45:33;;;;;;;36.40;19.60;;;;;;;13.63;62.90;98996.98;111986;1208;99038;-80
2021/09/12 01:48:05;;;;;;;35.40;19.30;;;;;;;13.61;62.98;98998.60;112024;1207;107364;-76
2021/09/12 01:50:33;;;;;;;32.20;17.80;;;;;;;13.58;63.10;98998.27;111987;1199;99707;-78
2021/09/12 01:53:01;;;;;;;36.10;18.00;;;;;;;13.55;63.40;98997.52;112085;1208;99050;-79
2021/09/12 01:55:29;;;;;;;35.40;19.90;;;;;;;13.49;63.52;98996.79;111857;1203;112435;-79
2021/09/12 01:57:57;;;;;;;41.50;20.90;;;;;;;13.44;63.40;98996.50;112009;1207;97360;-80
2021/09/12 02:00:25;;;;;;;34.80;18.50;;;;;;;13.44;63.43;98995.97;112007;1208;106672;-80
2021/09/12 02:02:53;;;;;;;38.30;20.00;;;;;;;13.42;63.86;98991.29;112013;1209;98215;-80
2021/09/12 02:05:28;;;;;;;34.70;18.70;;;;;;;13.34;63.81;98989.23;111996;1199;99003;-82
2021/09/12 02:07:56;;;;;;;37.10;20.30;;;;;;;13.30;63.80;98991.56;111845;1208;112489;-82
2021/09/12 02:10:26;;;;;;;36.80;18.10;;;;;;;13.28;63.76;98996.17;111951;1207;99029;-81
2021/09/12 02:12:57;;;;;;;;;;;;;;;13.27;63.97;98994.31;111968;1209;107072;-83
2021/09/12 02:15:24;;;;;;;33.40;18.30;;;;;;;13.21;64.03;98992.32;111967;1199;99359;-80
2021/09/12 02:17:52;;;;;;;32.70;17.50;;;;;;;13.19;64.07;98994.07;111999;1200;99015;-82
2021/09/12 02:20:23;;;;;;;37.40;20.40;;;;;;;13.17;64.24;98990.82;111979;1209;112423;-82
2021/09/12 02:22:55;;;;;;;35.70;19.00;;;;;;;13.14;64.45;98985.77;111998;1208;98894;-82
2021/09/12 02:25:23;;;;;;;36.50;19.00;;;;;;;13.09;64.43;98991.49;111956;1208;106771;-83
2021/09/12 02:27:50;;;;;;;36.30;19.90;;;;;;;13.06;64.55;98988.73;111988;1207;97343;-83
2021/09/12 02:30:18;;;;;;;34.50;19.00;;;;;;;13.03;64.48;98984.38;111971;1208;99028;-83
2021/09/12 02:32:46;;;;;;;33.80;18.70;;;;;;;13.01;64.61;98984.17;112005;1208;112530;-83
2021/09/12 02:35:17;;;;;;;36.00;19.80;;;;;;;12.98;64.55;98984.42;112009;1208;99154;-82
2021/09/12 02:37:45;;;;;;;36.40;20.80;;;;;;;12.99;64.60;98984.21;111976;1207;107627;-83
2021/09/12 02:40:16;;;;;;;36.70;17.80;;;;;;;12.99;64.55;98986.52;111919;1201;99621;-77
2021/09/12 02:42:45;;;;;;;34.40;18.70;;;;;;;12.97;64.55;98982.01;111977;1199;99635;-80
2021/09/12 02:45:20;;;;;;;33.10;19.10;;;;;;;12.92;64.49;98979.95;111963;1208;112406;-80
2021/09/12 02:47:51;;;;;;;34.90;19.50;;;;;;;12.91;64.56;98982.00;111970;1207;98947;-81
2021/09/12 02:50:19;;;;;;;34.30;19.80;;;;;;;12.90;64.54;98980.79;111948;1199;107479;-79
2021/09/12 02:52:49;;;;;;;37.70;18.60;;;;;;;12.90;64.79;98981.73;111944;1200;99651;-79
2021/09/12 02:55:20;;;;;;;35.20;19.20;;;;;;;12.89;64.62;98985.53;111987;1200;98941;-80
2021/09/12 02:57:48;;;;;;;32.70;19.10;;;;;;;12.88;64.68;98985.95;111960;1208;112364;-80
2021/09/12 03:00:19;;;;;;;33.40;17.70;;;;;;;12.87;64.68;98984.66;111981;1208;98957;-79
2021/09/12 03:02:46;;;;;;;38.00;19.20;;;;;;;12.85;64.73;98980.72;111920;1208;107534;-83
2021/09/12 03:05:18;;;;;;;32.70;18.00;;;;;;;12.86;64.93;98983.34;111950;1208;98932;-84
2021/09/12 03:07:49;;;;;;;34.20;18.80;;;;;;;12.82;65.01;98983.09;112000;1199;99039;-83
2021/09/12 03:10:18;;;;;;;35.30;19.20;;;;;;;12.77;64.96;98984.89;111953;1207;112520;-82
2021/09/12 03:12:45;;;;;;;35.10;18.30;;;;;;;12.77;65.08;98985.42;111986;1207;98933;-81
2021/09/12 03:15:17;;;;;;;32.90;17.60;;;;;;;12.75;65.14;98982.44;111971;1208;106501;-82
2021/09/12 03:17:44;;;;;;;36.10;17.50;;;;;;;12.72;65.47;98980.73;111974;1200;99071;-79
2021/09/12 03:20:15;;;;;;;32.20;16.70;;;;;;;12.67;65.52;98983.13;111981;1200;99124;-79
2021/09/12 03:22:43;;;;;;;33.50;17.20;;;;;;;12.62;65.94;98983.48;111930;1208;112494;-78
2021/09/12 03:25:11;;;;;;;32.50;16.80;;;;;;;12.57;66.01;98985.02;111976;1207;99010;-76
2021/09/12 03:27:39;;;;;;;32.00;16.80;;;;;;;12.53;66.25;98992.80;112039;1207;107439;-77
2021/09/12 03:30:07;;;;;;;29.40;16.00;;;;;;;12.46;66.44;98989.91;112025;1200;98947;-78
2021/09/12 03:32:35;;;;;;;32.50;17.40;;;;;;;12.42;66.55;98993.33;111916;1207;97392;-77
2021/09/12 03:35:03;;;;;;;33.10;17.60;;;;;;;12.39;66.32;98996.21;112005;1207;112282;-79
2021/09/12 03:37:31;;;;;;;33.70;18.10;;;;;;;12.41;66.28;98995.49;112051;1207;98924;-82
2021/09/12 03:39:59;;;;;;;32.10;17.70;;;;;;;12.43;66.32;98992.86;111987;1207;107454;-84
2021/09/12 03:42:27;;;;;;;30.80;16.40;;;;;;;12.45;66.22;98994.10;112014;1208;96782;-82
2021/09/12 03:44:55;;;;;;;31.60;17.00;;;;;;;12.43;66.32;98991.95;111843;1201;99019;-84
2021/09/12 03:47:23;;;;;;;31.00;16.00;;;;;;;12.42;66.33;98994.92;111904;1207;111400;-84
2021/09/12 03:49:58;;;;;;;31.80;17.20;;;;;;;12.40;66.43;98994.52;111972;1207;99023;-84
2021/09/12 03:52:26;;;;;;;31.90;17.70;;;;;;;12.37;66.34;98996.57;111939;1207;107383;-83
2021/09/12 03:54:53;;;;;;;29.60;15.10;;;;;;;12.33;66.46;98993.14;111964;1208;98963;-87
2021/09/12 03:57:23;;;;;;;31.30;16.40;;;;;;;12.31;66.57;98992.96;111910;1209;99482;-85
2021/09/12 03:59:54;;;;;;;31.10;16.50;;;;;;;12.29;66.63;98994.13;111982;1207;112867;-82
2021/09/12 04:02:22;;;;;;;30.90;16.10;;;;;;;12.28;66.54;98997.77;112011;1207;99344;-83
2021/09/12 04:04:53;;;;;;;29.80;15.60;;;;;;;12.27;66.72;98998.20;111946;1207;107443;-82
2021/09/12 04:07:21;;;;;;;32.00;16.60;;;;;;;12.25;66.82;98998.91;111965;1200;98970;-83
2021/09/12 04:09:49;;;;;;;35.10;16.60;;;;;;;12.24;66.73;99002.96;111951;1199;98946;-82
2021/09/12 04:12:16;;;;;;;31.90;17.30;;;;;;;12.26;66.77;98998.30;111965;1207;112486;-82
2021/09/12 04:14:44;;;;;;;30.80;17.70;;;;;;;12.30;66.94;98999.08;111972;1208;98998;-80
2021/09/12 04:17:12;;;;;;;33.10;16.40;;;;;;;12.34;66.98;98998.55;111911;1207;106999;-82
2021/09/12 04:19:40;;;;;;;31.90;16.80;;;;;;;12.38;66.75;98998.06;111864;1203;98968;-78
2021/09/12 04:22:08;;;;;;;30.80;16.40;;;;;;;12.41;66.86;99001.97;112016;1199;99046;-80
2021/09/12 04:24:36;;;;;;;32.40;16.20;;;;;;;12.44;66.82;98999.04;111946;1199;112509;-82
2021/09/12 04:27:07;;;;;;;31.00;15.30;;;;;;;12.47;66.84;99001.58;111900;1208;98867;-81
2021/09/12 04:29:38;;;;;;;29.10;16.50;;;;;;;12.49;66.81;99003.90;111976;1200;107522;-80
2021/09/12 04:32:07;;;;;;;31.30;16.10;;;;;;;12.52;66.87;99006.34;111973;1207;99069;-81
2021/09/12 04:34:37;;;;;;;28.70;15.20;;;;;;;12.55;66.84;99005.58;111988;1200;99069;-81
2021/09/12 04:37:09;;;;;;;29.30;16.00;;;;;;;12.56;66.69;99005.69;111976;1208;112500;-80
2021/09/12 04:39:40;;;;;;;32.20;16.10;;;;;;;12.51;66.74;99006.08;111872;1202;100578;-79
2021/09/12 04:42:08;;;;;;;30.20;15.60;;;;;;;12.48;66.80;99005.61;111957;1207;107388;-80
2021/09/12 04:44:36;;;;;;;29.70;16.10;;;;;;;12.46;66.83;99006.64;111891;1203;97198;-80
2021/09/12 04:47:04;;;;;;;32.80;16.50;;;;;;;12.46;66.84;99010.98;111955;1199;98965;-80
2021/09/12 04:49:32;;;;;;;31.30;15.70;;;;;;;12.46;66.87;99011.42;111990;1207;112183;-83
2021/09/12 04:52:00;;;;;;;30.90;17.40;;;;;;;12.46;66.88;99013.05;111951;1208;99044;-82
2021/09/12 04:54:31;;;;;;;31.50;16.30;;;;;;;12.48;66.87;99010.38;111967;1207;107208;-82
2021/09/12 04:56:58;;;;;;;30.50;15.30;;;;;;;12.50;67.08;99009.21;111928;1208;99011;-82
2021/09/12 04:59:26;;;;;;;26.10;14.50;;;;;;;12.51;67.14;99009.11;111992;1199;99014;-81
2021/09/12 05:01:54;;;;;;;29.20;15.80;;;;;;;12.49;67.03;99011.05;111968;1207;112430;-84
2021/09/12 05:04:25;;;;;;;30.30;16.70;;;;;;;12.49;67.07;99012.40;111989;1207;99043;-83
2021/09/12 05:06:53;;;;;;;30.80;16.10;;;;;;;12.54;67.11;99013.02;111975;1208;108397;-84
2021/09/12 05:09:23;;;;;;;32.30;15.40;;;;;;;12.59;67.25;99009.73;111961;1199;99018;-84
2021/09/12 05:11:57;;;;;;;29.70;16.20;;;;;;;12.64;67.16;99009.96;111949;1207;96330;-86
2021/09/12 05:14:27;;;;;;;30.30;16.00;;;;;;;12.70;67.23;99010.09;111936;1207;112418;-82
2021/09/12 05:16:56;;;;;;;30.80;15.60;;;;;;;12.73;67.05;99008.07;111932;1208;99040;-81
2021/09/12 05:19:24;;;;;;;28.90;15.80;;;;;;;12.74;67.00;99007.19;111923;1207;107082;-82
2021/09/12 05:21:52;;;;;;;28.10;15.80;;;;;;;12.76;67.20;99008.33;111915;1208;98949;-82
2021/09/12 05:24:20;;;;;;;28.40;15.60;;;;;;;12.77;67.34;99010.00;111968;1199;97693;-82
2021/09/12 05:26:51;;;;;;;30.40;15.80;;;;;;;12.82;67.28;99010.14;111954;1207;112430;-82
2021/09/12 05:29:22;;;;;;;30.10;15.90;;;;;;;12.88;67.23;99010.55;111980;1207;99010;-83
2021/09/12 05:31:53;;;;;;;33.10;16.30;;;;;;;12.92;67.25;99007.90;111858;1208;108513;-81
2021/09/12 05:34:24;;;;;;;29.70;16.10;;;;;;;12.99;67.35;99011.09;111895;1199;99005;-80
2021/09/12 05:36:52;;;;;;;28.50;15.20;;;;;;;13.04;67.41;99010.13;111915;1199;99041;-80
2021/09/12 05:39:20;;;;;;;30.40;15.50;;;;;;;13.06;67.32;99009.19;111924;1207;112542;-81
2021/09/12 05:41:49;;;;;;;30.10;14.70;;;;;;;13.07;67.33;99014.33;111888;1207;96884;-82
2021/09/12 05:44:17;;;;;;;28.20;13.60;;;;;;;13.08;67.32;99013.16;111993;1207;107567;-79
2021/09/12 05:46:45;;;;;;;26.60;14.10;;;;;;;13.10;67.41;99011.58;111917;1200;99046;-80
2021/09/12 05:49:16;;;;;;;29.60;14.80;;;;;;;13.11;67.54;99012.02;111987;1200;98972;-79
2021/09/12 05:51:47;;;;;;;27.80;14.90;;;;;;;13.12;67.53;99014.61;111963;1208;113467;-80
2021/09/12 05:54:14;;;;;;;29.20;14.90;;;;;;;13.16;67.59;99019.04;112013;1207;99007;-79
2021/09/12 05:56:42;;;;;;;27.80;15.00;;;;;;;13.22;67.61;99021.76;111861;1203;107489;-79
2021/09/12 05:59:14;;;;;;;28.30;14.10;;;;;;;13.29;67.63;99023.87;111879;1208;98970;-76
2021/09/12 06:01:45;;;;;;;27.70;14.50;;;;;;;13.34;67.70;99024.81;111994;1206;98899;-76
2021/09/12 06:04:13;;;;;;;27.00;13.90;;;;;;;13.41;67.63;99023.39;111963;1199;112526;-77
2021/09/12 06:06:41;;;;;;;29.60;15.20;;;;;;;13.49;67.65;99027.72;111977;1206;99112;-76
2021/09/12 06:09:09;;;;;;;29.40;15.30;;;;;;;13.57;67.66;99023.31;111959;1206;107585;-82
2021/09/12 06:11:39;;;;;;;32.50;15.40;;;;;;;13.65;67.66;99022.77;112123;1205;99076;-81
2021/09/12 06:14:07;;;;;;;25.60;14.30;;;;;;;13.75;67.77;99021.27;112055;1198;99044;-77
2021/09/12 06:16:35;;;;;;;28.80;15.90;;;;;;;13.83;67.88;99020.20;112011;1200;112306;-76
2021/09/12 06:19:03;;;;;;;27.10;14.30;;;;;;;13.90;67.90;99021.89;111984;1200;98997;-80
2021/09/12 06:21:37;;;;;;;27.90;14.70;;;;;;;13.98;67.94;99022.25;111992;1207;107587;-77
2021/09/12 06:24:08;;;;;;;26.40;14.10;;;;;;;14.06;68.05;99023.20;111903;1200;98911;-79
2021/09/12 06:26:37;;;;;;;29.20;14.40;;;;;;;14.14;68.00;99024.27;111963;1206;99003;-84
2021/09/12 06:29:08;;;;;;;25.90;13.60;;;;;;;14.23;68.06;99024.02;111868;1200;112233;-81
2021/09/12 06:31:36;;;;;;;29.00;13.70;;;;;;;14.33;67.99;99022.95;111942;1206;97116;-81
2021/09/12 06:34:04;;;;;;;24.30;13.10;;;;;;;14.43;68.04;99022.62;111928;1200;106509;-71
2021/09/12 06:36:31;;;;;;;27.00;14.00;;;;;;;14.54;67.99;99024.27;111935;1200;98928;-72
2021/09/12 06:38:59;;;;;;;28.60;13.70;;;;;;;14.66;68.12;99023.21;111899;1203;98934;-73
2021/09/12 06:41:27;;;;;;;27.20;14.40;;;;;;;14.78;68.09;99023.63;111917;1207;112367;-72
2021/09/12 06:43:55;;;;;;;27.50;13.60;;;;;;;14.90;67.98;99024.36;111996;1199;99028;-75
2021/09/12 06:46:23;;;;;;;26.80;14.40;;;;;;;15.01;68.06;99029.38;111941;1207;107414;-72
2021/09/12 06:48:50;;;;;;;26.20;13.70;;;;;;;15.12;68.13;99022.69;111939;1207;96780;-70
2021/09/12 06:51:18;;;;;;;30.00;14.30;;;;;;;15.24;67.96;99023.73;111930;1207;99005;-74
2021/09/12 06:53:49;;;;;;;27.40;14.60;;;;;;;15.37;68.10;99017.55;111985;1206;113014;-74
2021/09/12 06:56:17;;;;;;;28.00;14.50;;;;;;;15.49;68.06;99020.86;111918;1200;99028;-72
2021/09/12 06:58:48;;;;;;;28.60;14.60;;;;;;;15.61;68.03;99025.60;111968;1206;109135;-71
2021/09/12 07:01:16;;;;;;;24.60;13.40;;;;;;;15.74;68.06;99028.91;111961;1200;99007;-69
2021/09/12 07:03:47;;;;;;;24.60;12.70;;;;;;;15.87;68.12;99030.40;111941;1199;98358;-70
2021/09/12 07:06:18;;;;;;;25.30;13.30;;;;;;;15.99;67.95;99023.14;111946;1200;113118;-70
2021/09/12 07:08:46;;;;;;;23.00;12.10;;;;;;;16.13;67.93;99017.73;111966;1207;99348;-75
2021/09/12 07:11:14;;;;;;;25.60;12.40;;;;;;;16.26;67.77;99017.52;111973;1206;107297;-72
2021/09/12 07:13:42;;;;;;;30.40;13.10;;;;;;;16.38;67.82;99015.81;111894;1201;99059;-70
2021/09/12 07:16:10;;;;;;;26.00;13.50;;;;;;;16.51;67.69;99015.45;111944;1199;99032;-75
2021/09/12 07:18:38;;;;;;;24.40;12.90;;;;;;;16.65;67.74;99014.09;111897;1207;113121;-73
2021/09/12 07:21:06;;;;;;;24.80;11.70;;;;;;;16.79;67.82;99015.52;111983;1208;98950;-71
2021/09/12 07:23:34;;;;;;;28.60;13.10;;;;;;;16.96;67.86;99020.70;111965;1207;107552;-72
2021/09/12 07:26:04;;;;;;;23.70;12.20;;;;;;;17.18;67.70;99018.70;111958;1203;96563;-69
2021/09/12 07:28:34;;;;;;;28.00;12.80;;;;;;;17.87;67.32;99023.30;111911;1208;98225;-71
2021/09/12 07:31:02;;;;;;;24.90;11.00;;;;;;;19.83;66.81;99017.96;111887;1208;112608;-72
2021/09/12 07:33:30;;;;;;;25.10;12.10;;;;;;;21.83;66.33;99016.05;111959;1206;99015;-69
2021/09/12 07:36:01;;;;;;;22.80;11.90;;;;;;;23.52;65.71;99018.54;111896;1206;107474;-71
2021/09/12 07:38:30;;;;;;;23.10;11.50;;;;;;;25.04;65.26;99015.13;111889;1206;99028;-71
2021/09/12 07:41:01;;;;;;;22.30;11.30;;;;;;;26.36;64.84;99014.05;111922;1206;99044;-77
2021/09/12 07:43:32;;;;;;;23.20;11.40;;;;;;;27.42;64.62;99017.35;111915;1206;112645;-72
2021/09/12 07:46:00;;;;;;;20.80;10.60;;;;;;;28.29;64.00;99014.72;111912;1206;99014;-71
2021/09/12 07:48:28;;;;;;;25.80;11.30;;;;;;;29.17;63.55;99019.04;111922;1207;107507;-70
2021/09/12 07:50:56;;;;;;;24.80;11.40;;;;;;;30.05;63.27;99016.58;111930;1200;97573;-73
2021/09/12 07:53:23;;;;;;;20.40;10.30;;;;;;;30.83;63.18;99016.06;111938;1202;98949;-72
2021/09/12 07:55:51;;;;;;;22.90;10.10;;;;;;;31.54;62.14;99021.03;111832;1208;103842;-76
2021/09/12 07:58:19;;;;;;;24.80;11.40;;;;;;;32.21;62.24;99025.63;111956;1200;97043;-70
2021/09/12 08:00:47;;;;;;;21.20;10.70;;;;;;;32.71;62.21;99028.48;111955;1207;108187;-69
2021/09/12 08:03:19;;;;;;;19.40;9.90;;;;;;;33.26;60.98;99023.14;111926;1207;98954;-70
2021/09/12 08:05:50;;;;;;;21.80;10.30;;;;;;;34.02;60.80;99021.75;111950;1202;98942;-73
2021/09/12 08:08:19;;;;;;;22.70;10.60;;;;;;;34.54;60.78;99021.23;111975;1207;103912;-71
2021/09/12 08:10:47;;;;;;;19.30;9.20;;;;;;;34.70;59.85;99020.29;111951;1207;98951;-71
2021/09/12 08:13:16;;;;;;;28.50;10.20;;;;;;;34.89;59.37;99020.52;111937;1207;99433;-70
2021/09/12 08:15:45;;;;;;;22.30;10.20;;;;;;;35.11;58.77;99020.48;111953;1207;96417;-72
2021/09/12 08:18:17;;;;;;;19.90;10.20;;;;;;;35.37;57.96;99019.70;111967;1199;99680;-70
2021/09/12 08:20:51;;;;;;;19.70;10.70;;;;;;;35.69;57.71;99022.67;111933;1209;103838;-71
2021/09/12 08:23:21;;;;;;;23.30;9.80;;;;;;;35.95;57.19;99021.09;111971;1207;98950;-71
2021/09/12 08:25:49;;;;;;;20.20;8.90;;;;;;;35.92;56.32;99018.42;111924;1206;99060;-71
2021/09/12 08:28:17;;;;;;;17.40;9.00;;;;;;;35.74;55.31;99019.85;111952;1207;97001;-71
2021/09/12 08:30:52;;;;;;;21.80;9.70;;;;;;;35.87;55.15;99020.88;111933;1200;99000;-74
2021/09/12 08:33:24;;;;;;;19.50;9.10;;;;;;;36.20;54.35;99019.58;111914;1208;103860;-72
2021/09/12 08:35:51;;;;;;;19.10;9.30;;;;;;;36.54;53.93;99022.20;111868;1200;98937;-73
2021/09/12 08:38:22;;;;;;;17.00;9.20;;;;;;;36.83;53.47;99024.81;111931;1207;99023;-71
2021/09/12 08:40:57;;;;;;;22.10;9.00;;;;;;;36.96;52.18;99020.36;111882;1200;99066;-73
2021/09/12 08:43:30;;;;;;;18.60;8.60;;;;;;;36.93;51.17;99023.20;111849;1208;99034;-71
2021/09/12 08:46:03;;;;;;;19.50;9.80;;;;;;;37.29;51.22;99020.33;111870;1208;103417;-70
2021/09/12 08:48:31;;;;;;;19.10;8.80;;;;;;;37.33;49.61;99019.98;111916;1207;96841;-79
2021/09/12 08:50:58;;;;;;;21.20;9.20;;;;;;;36.92;49.01;99020.21;111836;1209;99062;-67
2021/09/12 08:53:26;;;;;;;19.80;8.50;;;;;;;36.80;48.69;99017.40;111886;1207;97413;-68
2021/09/12 08:55:55;;;;;;;20.00;8.90;;;;;;;36.82;48.38;99015.40;111860;1207;98967;-67
2021/09/12 08:58:25;;;;;;;17.80;8.50;;;;;;;36.89;47.68;99014.96;111849;1207;104381;-67
2021/09/12 09:01:03;;;;;;;16.60;8.80;;;;;;;36.60;46.16;99009.31;111820;1207;99441;-67
2021/09/12 09:03:42;;;;;;;17.20;8.60;;;;;;;36.22;45.80;99010.92;111793;1208;99373;-67
2021/09/12 09:06:19;;;;;;;19.50;9.10;;;;;;;35.91;45.20;99015.22;111873;1201;98954;-67
2021/09/12 09:09:00;;;;;;;20.80;9.40;;;;;;;35.70;44.79;99016.15;111888;1202;98902;-67
2021/09/12 09:11:34;;;;;;;18.70;9.00;;;;;;;35.59;44.35;99013.95;111860;1207;103881;-68
2021/09/12 09:14:17;;;;;;;17.60;8.40;;;;;;;35.62;44.04;99016.73;111805;1208;99423;-67
2021/09/12 09:16:49;;;;;;;18.10;9.40;;;;;;;35.53;43.46;99015.58;111823;1208;98193;-68
2021/09/12 09:19:18;;;;;;;18.80;9.10;;;;;;;35.34;42.84;99013.13;111826;1207;98987;-65
2021/09/12 09:21:50;;;;;;;17.50;8.90;;;;;;;35.25;42.49;99018.66;111894;1207;96395;-68
2021/09/12 09:24:26;;;;;;;17.40;7.90;;;;;;;35.43;42.23;99015.12;111851;1208;104415;-69
2021/09/12 09:27:04;;;;;;;18.50;9.20;;;;;;;35.49;41.42;99015.84;111897;1201;97270;-68
2021/09/12 09:29:35;;;;;;;15.80;8.10;;;;;;;35.64;41.54;99015.44;111825;1207;99043;-68
2021/09/12 09:32:06;;;;;;;;;;;;;;;36.05;41.65;99013.59;111903;1207;99629;-67
2021/09/12 09:34:38;;;;;;;20.30;8.90;;;;;;;36.18;41.57;99010.95;111927;1207;96853;-69
2021/09/12 09:37:24;;;;;;;18.10;8.90;;;;;;;36.08;40.86;99008.88;111928;1207;103896;-68
2021/09/12 09:39:56;;;;;;;16.10;8.40;;;;;;;35.76;40.36;99010.39;111888;1207;99550;-67
2021/09/12 09:42:36;;;;;;;16.70;8.60;;;;;;;35.49;40.06;99008.94;111911;1207;99087;-68
2021/09/12 09:45:16;;;;;;;18.20;9.50;;;;;;;35.18;39.82;99004.23;111909;1207;99035;-67
2021/09/12 09:47:51;;;;;;;18.40;9.00;;;;;;;34.72;39.61;99002.66;111916;1199;99373;-67
2021/09/12 09:50:29;;;;;;;19.60;9.90;;;;;;;34.18;39.37;99000.21;111894;1207;104477;-67
2021/09/12 09:53:02;;;;;;;18.80;8.80;;;;;;;33.71;38.79;99000.99;111947;1207;99506;-69
2021/09/12 09:55:37;;;;;;;19.20;9.40;;;;;;;33.32;38.72;98999.50;111891;1207;98857;-69
2021/09/12 09:58:09;;;;;;;20.20;9.30;;;;;;;33.01;38.80;98993.66;111921;1208;98961;-68
2021/09/12 10:00:40;;;;;;;17.90;9.20;;;;;;;32.69;38.35;98997.23;111906;1207;99049;-69
2021/09/12 10:03:10;;;;;;;18.40;9.30;;;;;;;32.38;38.41;98998.05;111885;1207;112993;-68
2021/09/12 10:05:38;;;;;;;19.90;9.30;;;;;;;32.10;38.08;98997.08;111900;1208;99633;-68
2021/09/12 10:08:08;;;;;;;18.70;9.00;;;;;;;31.81;37.99;98997.30;112956;1199;98911;-70
2021/09/12 10:10:38;;;;;;;18.10;9.00;;;;;;;31.55;37.96;98997.62;111892;1207;96536;-71
2021/09/12 10:13:08;;;;;;;23.90;9.70;;;;;;;31.28;37.81;98993.95;111894;1207;98941;-70
2021/09/12 10:15:40;;;;;;;18.70;9.40;;;;;;;31.04;37.86;98990.52;111837;1200;104434;-68
2021/09/12 10:18:13;;;;;;;20.50;9.40;;;;;;;30.88;37.79;98989.10;111883;1207;96879;-68
2021/09/12 10:20:41;;;;;;;19.60;9.50;;;;;;;30.74;38.03;98988.58;111820;1207;99277;-68
2021/09/12 10:23:12;;;;;;;20.50;9.60;;;;;;;30.66;37.90;98987.20;111699;1207;99124;-68
2021/09/12 10:25:49;;;;;;;21.10;9.40;;;;;;;30.56;37.93;98988.29;111718;1207;98299;-67
2021/09/12 10:28:30;;;;;;;19.10;9.60;;;;;;;30.28;37.91;98987.32;113341;1199;113347;-69
2021/09/12 10:31:00;;;;;;;21.60;9.60;;;;;;;30.02;38.06;98984.54;111712;1207;98298;-68
2021/09/12 10:33:28;;;;;;;21.00;9.80;;;;;;;29.77;37.92;98986.07;112165;1200;109094;-68
2021/09/12 10:36:03;;;;;;;20.00;9.90;;;;;;;29.55;38.06;98983.89;111837;1207;98951;-70
2021/09/12 10:38:40;;;;;;;21.40;10.10;;;;;;;29.23;37.80;98987.86;111873;1207;99047;-67
2021/09/12 10:41:14;;;;;;;19.50;9.50;;;;;;;28.84;37.90;98987.88;111853;1207;112984;-69
2021/09/12 10:43:47;;;;;;;21.00;9.50;;;;;;;28.59;37.81;98986.73;111912;1207;99259;-69
2021/09/12 10:46:15;;;;;;;21.70;9.70;;;;;;;28.31;37.91;98992.49;111881;1207;107648;-66
2021/09/12 10:48:49;;;;;;;19.00;10.50;;;;;;;28.06;38.23;98988.87;111842;1207;99639;-67
2021/09/12 10:51:19;;;;;;;21.70;10.60;;;;;;;27.87;38.25;98992.23;111852;1206;97281;-68
2021/09/12 10:53:59;;;;;;;20.00;10.30;;;;;;;27.74;38.48;98991.89;111862;1206;113016;-67
2021/09/12 10:56:33;;;;;;;20.80;9.70;;;;;;;27.63;38.38;98992.15;111825;1206;99106;-67
2021/09/12 10:59:12;;;;;;;19.50;9.80;;;;;;;27.51;38.26;98988.17;111820;1207;107995;-68
2021/09/12 11:01:49;;;;;;;18.20;9.80;;;;;;;27.39;38.26;98982.54;111836;1207;98956;-70
2021/09/12 11:04:28;;;;;;;24.40;11.50;;;;;;;27.22;38.57;98982.11;111880;1207;97546;-68
2021/09/12 11:07:04;;;;;;;18.20;9.50;;;;;;;27.00;38.45;98984.63;111864;1207;113101;-67
2021/09/12 11:09:35;;;;;;;22.30;10.50;;;;;;;26.80;38.57;98979.59;111821;1207;99015;-68
2021/09/12 11:12:06;;;;;;;23.40;11.10;;;;;;;26.62;38.63;98981.19;111838;1207;108032;-69
2021/09/12 11:14:35;;;;;;;23.60;11.70;;;;;;;26.46;38.62;98976.92;111839;1207;99031;-68
2021/09/12 11:17:06;;;;;;;20.50;10.00;;;;;;;26.40;38.86;98970.55;111844;1207;99055;-69
2021/09/12 11:19:52;;;;;;;24.20;9.90;;;;;;;26.39;39.07;98970.20;111853;1207;111454;-66
2021/09/12 11:22:20;;;;;;;20.20;9.80;;;;;;;26.42;39.23;98972.12;111827;1207;96410;-68